• Join FlightAware (Why Join?)
  • Login
  • US Flag 
05:05PM EDT


 

Airport Tracker/Info


-or-


 

Live Flight TrackerFlight Track Log ✈ ASQ5958 ✈ 29-Apr-2013 ✈ KPIT - KDEN

Flight Track Log - Related Links

Times and Time Zones

All times are in EDT time to prevent confusion due to time zone crossing. See the ASQ5958 flight status page for this flight to view local times or setup timezone preferences in your user account.

Time Position Orientation Groundspeed Altitude Reporting Facility
EDT Latitude Longitude Course Direction KTS MPH feet Rate Location/Type
07:36PM 40.5131 -80.3536 288° West 167 192 4,000  Level Cleveland Center
07:37PM 40.5319 -80.4356 287° West 193 222 5,800 2,040 Climbing Cleveland Center
07:38PM 40.5528 -80.5256 287° West 238 274 8,100 2,340 Climbing Cleveland Center
07:39PM 40.5736 -80.6242 286° West 264 304 10,500 1,500 Climbing Cleveland Center
07:40PM 40.5967 -80.7336 286° West 290 334 11,100 1,140 Climbing Cleveland Center
07:41PM 40.6478 -80.9910 288° West  Level FlightAware Approximate
07:41PM 40.6275 -80.8758 286° West 347 399 12,800  Level Cleveland Center
07:42PM 40.6542 -81.0044 285° West 358 412 14,800 1,920 Climbing Cleveland Center
07:43PM 40.6767 -81.1278 284° West 363 418 16,700 1,920 Climbing Cleveland Center
07:44PM 40.7031 -81.2514 286° West 352 405 18,700 1,860 Climbing Cleveland Center
07:45PM 40.7272 -81.3694 285° West 344 396 20,500 1,560 Climbing Cleveland Center
07:46PM 40.7597 -81.4878 290° West 338 389 21,900 1,140 Climbing Cleveland Center
07:47PM 40.7983 -81.6117 292° West 357 411 22,800 840 Climbing Cleveland Center
07:48PM 40.8347 -81.7275 293° West 374 430 23,600 1,080 Climbing Cleveland Center
07:49PM 40.8667 -81.8597 288° West 380 437 25,000 1,500 Climbing Cleveland Center
07:50PM 40.8817 -81.9975 278° West 380 437 26,600 1,500 Climbing Cleveland Center
07:51PM 40.8967 -82.1297 279° West 374 430 28,100 1,500 Climbing Cleveland Center
07:52PM 40.9114 -82.2728 278° West 367 422 29,600 1,500 Climbing Cleveland Center
07:53PM 40.9239 -82.4022 277° West 362 417 31,100 1,500 Climbing Cleveland Center
07:54PM 40.9386 -82.5264 279° West 351 404 32,600 1,260 Climbing Cleveland Center
07:55PM 40.9511 -82.6450 278° West 344 396 33,700 660 Climbing Cleveland Center
07:56PM 40.9633 -82.7692 277° West 344 396 34,000 120 Climbing Cleveland Center
07:57PM 40.9775 -82.9072 278° West 367 422 34,000  Level Cleveland Center
07:58PM 40.9911 -83.0481 277° West 388 447 34,100 300 Climbing Cleveland Center
07:59PM 40.9942 -83.1939 272° West 394 453 34,700 600 Climbing Cleveland Center
08:00PM 40.9972 -83.3233 272° West 394 453 35,300 540 Climbing Cleveland Center
08:01PM 41.0125 -83.4672 278° West 399 459 35,900 300 Climbing Cleveland Center
08:02PM 41.0256 -83.6108 277° West 404 465 36,000  Climbing Cleveland Center
08:03PM 41.0403 -83.7603 277° West 411 473 36,000 120 Level Cleveland Center
08:04PM 41.0544 -83.9178 277° West 413 475 36,300 360 Climbing Cleveland Center
08:05PM 41.0742 -84.1419 277° West 398 458 37,000 240 Climbing Chicago Center
08:07PM 41.0875 -84.2886 277° West 399 459 37,000  Level Chicago Center
08:08PM 41.1006 -84.4356 277° West 402 463 37,000  Level Chicago Center
08:09PM 41.1139 -84.5806 277° West 399 459 37,000  Level Chicago Center
08:10PM 41.1297 -84.7533 277° West 393 452 37,000  Level Chicago Center
08:11PM 41.1419 -84.8986 276° West 395 455 37,000  Level Chicago Center
08:12PM 41.1539 -85.0422 276° West 393 452 37,000  Level Chicago Center
08:13PM 41.1653 -85.1861 276° West 391 450 37,000  Level Chicago Center
08:14PM 41.1775 -85.3314 276° West 393 452 37,000  Level Chicago Center
08:15PM 41.1889 -85.4764 276° West 395 455 37,000  Level Chicago Center
08:16PM 41.2006 -85.6206 276° West 393 452 37,000  Level Chicago Center
08:17PM 41.2119 -85.7661 276° West 394 453 37,000  Level Chicago Center
08:18PM 41.2250 -85.9414 276° West 395 455 37,000  Level Chicago Center
08:19PM 41.2364 -86.0878 276° West 399 459 37,000  Level Chicago Center
08:20PM 41.2475 -86.2344 276° West 401 461 37,000  Level Chicago Center
08:21PM 41.2581 -86.3831 275° West 402 463 37,000  Level Chicago Center
08:22PM 41.2700 -86.5300 276° West 402 463 37,000  Level Chicago Center
08:23PM 41.2789 -86.6756 275° West 398 458 37,000  Level Chicago Center
08:24PM 41.2906 -86.8444 275° West 389 448 37,000  Level Chicago Center
08:25PM 41.3000 -86.9872 275° West 390 449 37,000  Level Chicago Center
08:26PM 41.3100 -87.1297 275° West 389 448 37,000  Level Chicago Center
08:27PM 41.3192 -87.2722 275° West 389 448 37,000  Level Chicago Center
08:28PM 41.3289 -87.4147 275° West 390 449 37,000  Level Chicago Center
08:29PM 41.3383 -87.5600 275° West 396 456 37,000  Level Chicago Center
08:30PM 41.3492 -87.7339 275° West 394 453 37,000  Level Chicago Center
08:31PM 41.3578 -87.8797 275° West 396 456 37,000  Level Chicago Center
08:32PM 41.3686 -88.0344 275° West 399 459 37,000  Level Chicago Center
08:33PM 41.3717 -88.1803 272° West 398 458 37,000  Level Chicago Center
08:34PM 41.3769 -88.3278 273° West 394 453 37,000  Level Chicago Center
08:35PM 41.3822 -88.4742 273° West 396 456 37,000  Level Chicago Center
08:36PM 41.3867 -88.6203 272° West 396 456 37,000  Level Chicago Center
08:37PM 41.3919 -88.7972 272° West 400 460 37,000  Level Chicago Center
08:39PM 41.3967 -88.9444 272° West 401 461 37,000  Level Chicago Center
08:40PM 41.4006 -89.0925 272° West 401 461 37,000  Level Chicago Center
08:41PM 41.4058 -89.2411 273° West 404 465 37,000  Level Chicago Center
08:42PM 41.4100 -89.3925 272° West 410 472 37,000  Level Chicago Center
08:43PM 41.4133 -89.5417 272° West 406 467 37,000  Level Chicago Center
08:44PM 41.4169 -89.7200 272° West 405 466 37,000  Level Chicago Center
08:45PM 41.4206 -89.8703 272° West 407 468 37,000  Level Chicago Center
08:46PM 41.4236 -90.0219 272° West 409 471 37,000  Level Chicago Center
08:47PM 41.4172 -90.1750 267° West 413 475 37,000  Level Chicago Center
08:48PM 41.4103 -90.3267 267° West 414 476 37,000  Level Chicago Center
08:49PM 41.4025 -90.5058 267° West 408 470 37,000  Level Chicago Center
08:50PM 41.3961 -90.6581 267° West 414 476 37,000  Level Chicago Center
08:51PM 41.3889 -90.8097 266° West 415 478 37,000  Level Chicago Center
08:52PM 41.3825 -90.9603 267° West 410 472 37,000  Level Chicago Center
08:53PM 41.3775 -91.1122 268° West 412 474 37,000  Level Chicago Center
08:54PM 41.3719 -91.2625 267° West 408 470 37,000  Level Chicago Center
08:55PM 41.3669 -91.4178 268° West 410 472 37,000  Level Chicago Center
08:56PM 41.3619 -91.6008 268° West 414 476 37,000  Level Chicago Center
08:57PM 41.3589 -91.7542 269° West 417 480 37,000  Level Chicago Center
08:58PM 41.3553 -91.9053 268° West 413 475 37,000  Level Chicago Center
08:59PM 41.3497 -92.0558 267° West 411 473 37,000  Level Chicago Center
09:00PM 41.3439 -92.2042 267° West 409 471 37,000  Level Chicago Center
09:01PM 41.3372 -92.3842 267° West 408 470 37,000  Level Chicago Center
09:02PM 41.3339 -92.5367 268° West 412 474 37,000  Level Chicago Center
09:03PM 41.3392 -92.6872 273° West 410 472 37,000  Level Chicago Center
09:04PM 41.3556 -92.8369 278° West 414 476 37,000  Level Chicago Center
09:05PM 41.3744 -93.0147 278° West 409 471 37,000  Level Minneapolis Center
09:07PM 41.3886 -93.1611 277° West 405 466 37,000  Level Minneapolis Center
09:08PM 41.4036 -93.3089 278° West 406 467 37,000  Level Minneapolis Center
09:09PM 41.4211 -93.4864 278° West 407 468 37,000  Level Minneapolis Center
09:10PM 41.4269 -93.6342 273° West 406 467 37,000  Level Minneapolis Center
09:11PM 41.4178 -93.7856 265° West 407 468 37,000 -120 Level Minneapolis Center
09:12PM 41.4147 -93.9342 268° West 411 473 36,800 -420 Descending Minneapolis Center
09:13PM 41.4367 -94.0864 281° West 422 486 36,200 -420 Descending Minneapolis Center
09:14PM 41.4603 -94.2778 279° West 426 490 36,000 -120 Descending Minneapolis Center
09:15PM 41.4794 -94.4289 280° West 418 481 36,000  Level Minneapolis Center
09:16PM 41.4981 -94.5789 279° West 413 475 36,000  Level Minneapolis Center
09:17PM 41.5158 -94.7292 279° West 411 473 36,000  Level Minneapolis Center
09:18PM 41.5328 -94.8775 279° West 408 470 36,000  Level Minneapolis Center
09:19PM 41.5508 -95.0242 279° West 402 463 36,000  Level Minneapolis Center
09:20PM 41.5683 -95.1700 279° West 400 460 36,000  Level Minneapolis Center
09:21PM 41.5892 -95.3467 279° West 402 463 36,000  Level Minneapolis Center
09:22PM 41.6031 -95.4633 279° West 400 460 36,000  Level Minneapolis Center
09:23PM 41.6192 -95.6086 278° West 397 457 36,000  Level Minneapolis Center
09:24PM 41.6389 -95.7897 278° West 396 456 36,000  Level Minneapolis Center
09:25PM 41.6536 -95.9256 278° West 395 455 36,000  Level Minneapolis Center
09:26PM 41.6728 -96.0972 279° West 396 456 36,000  Level Minneapolis Center
09:27PM 41.6892 -96.2428 279° West 399 459 36,000  Level Minneapolis Center
09:28PM 41.7044 -96.3875 278° West 397 457 36,000  Level Minneapolis Center
09:29PM 41.7194 -96.5319 278° West 396 456 36,000  Level Minneapolis Center
09:30PM 41.7342 -96.6761 278° West 393 452 36,000  Level Minneapolis Center
09:31PM 41.7464 -96.7919 278° West 394 453 36,000  Level Minneapolis Center
09:32PM 41.7669 -96.9956 278° West 394 453 36,000  Level Minneapolis Center
09:33PM 41.7819 -97.1397 278° West 393 452 36,000  Level Minneapolis Center
09:34PM 41.7956 -97.2844 277° West 392 451 36,000  Level Minneapolis Center
09:35PM 41.8097 -97.4297 278° West 393 452 36,000  Level Minneapolis Center
09:36PM 41.8236 -97.5753 277° West 395 455 36,000  Level Minneapolis Center
09:37PM 41.8372 -97.7206 277° West 394 453 36,000  Level Minneapolis Center
09:38PM 41.8522 -97.8667 278° West 395 455 36,000  Level Minneapolis Center
09:39PM 41.8644 -98.0119 276° West 394 453 36,000  Level Minneapolis Center
09:41PM 41.8794 -98.1714 277° West 392 451 36,000  Level Minneapolis Center
09:42PM 41.8925 -98.3153 277° West 391 450 36,000  Level Minneapolis Center
09:43PM 41.9000 -98.4608 274° West 393 452 36,000  Level Minneapolis Center
09:44PM 41.8739 -98.6344 259° West 398 458 36,000  Level Minneapolis Center
09:45PM 41.8475 -98.8072 258° West 397 457 36,000  Level Minneapolis Center
09:46PM 41.8256 -98.9508 258° West 396 456 36,000  Level Minneapolis Center
09:47PM 41.8019 -99.0953 258° West 397 457 36,000  Level Minneapolis Center
09:48PM 41.7819 -99.2114 257° West 398 458 36,000  Level Denver Center
09:49PM 41.7600 -99.3542 258° West 395 455 36,000  Level Denver Center
09:50PM 41.7372 -99.4981 258° West 396 456 36,000  Level Denver Center
09:51PM 41.7131 -99.6414 257° West 396 456 36,000  Level Denver Center
09:52PM 41.6869 -99.8036 258° West 397 457 36,000  Level Denver Center
09:53PM 41.6642 -99.9408 258° West 397 457 36,000  Level Denver Center
09:54PM 41.6358 -100.1008 257° West 397 457 36,000  Level Denver Center
09:55PM 41.6133 -100.2400 258° West 400 460 36,000  Level Denver Center
09:56PM 41.5861 -100.3986 257° West 396 456 36,000  Level Denver Center
09:58PM 41.5131 -100.6113 254° West  Level FlightAware Approximate
09:58PM 41.5344 -100.6950 254° West 396 456 36,000  Level Denver Center
09:59PM 41.4992 -100.8278 251° West 397 457 36,000  Level Denver Center
10:00PM 41.4469 -101.0022 248° West 399 459 36,000  Level Denver Center
10:01PM 41.4058 -101.1336 247° West 402 463 36,000  Level Denver Center
10:02PM 41.3606 -101.2861 248° West 399 459 36,000  Level Denver Center
10:03PM 41.3203 -101.4169 248° West 401 461 36,000  Level Denver Center
10:04PM 41.2739 -101.5686 248° West 400 460 36,000 -300 Level Denver Center
10:05PM 41.2319 -101.7000 247° West 403 464 35,400 -900 Descending Denver Center
10:06PM 41.1831 -101.8533 247° West 404 465 34,200 -720 Descending Denver Center
10:07PM 41.1436 -101.9828 248° West 400 460 34,000 -120 Descending Denver Center
10:08PM 41.0961 -102.1403 248° West 410 472 34,000  Level Denver Center
10:10PM 41.0533 -102.2769 247° West 418 481 34,000  Level Denver Center
10:11PM 41.0019 -102.4353 247° West 419 482 34,000  Level Denver Center
10:12PM 40.9506 -102.5639 242° Southwest 415 478 34,000  Level Denver Center
10:13PM 40.8908 -102.7117 242° Southwest 410 472 34,000  Level Denver Center
10:14PM 40.8386 -102.8403 242° Southwest 414 476 34,000  Level Denver Center
10:15PM 40.7786 -102.9869 242° Southwest 409 471 34,000  Level Denver Center
10:16PM 40.7239 -103.1214 242° Southwest 408 470 34,000 -840 Level Denver Center
10:17PM 40.6694 -103.2536 242° Southwest 408 470 32,300 -2,580 Descending Denver Center
10:18PM 40.6153 -103.3836 241° Southwest 403 464 28,800 -3,420 Descending Denver Center
10:19PM 40.5625 -103.5119 242° Southwest 397 457 25,300 -3,420 Descending Denver Center
10:20PM 40.5106 -103.6381 242° Southwest 390 449 21,800 -3,420 Descending Denver Center
10:21PM 40.4592 -103.7586 241° Southwest 378 435 18,300 -2,280 Descending Denver Center
10:22PM 40.4058 -103.8925 242° Southwest 371 427 17,100 -600 Descending Denver Center
10:23PM 40.3633 -103.9925 241° Southwest 306 352 17,100 -420 Level Denver Center
10:24PM 40.3567 -104.1022 265° West 287 330 16,300 -1,140 Descending Denver Center
10:25PM 40.3542 -104.2022 268° West 279 321 14,800 -1,140 Descending Denver Center
10:26PM 40.3539 -104.3047 270° West 282 325 14,000 -420 Descending Denver Center
10:27PM 40.3522 -104.3936 269° West 230 265 14,000 -840 Level Denver Center
10:28PM 40.3256 -104.4661 244° Southwest 220 253 12,400 -1,620 Descending Denver Center
10:29PM 40.2997 -104.5444 247° West 232 267 10,700 -1,140 Descending Denver Center
10:30PM 40.2719 -104.6303 247° West 238 274 10,100 -300 Descending Denver Center
10:31PM 40.2169 -104.6819 216° Southwest 246 283 10,100 -120 Level Denver Center
10:32PM 40.1447 -104.6933 187° South 252 290 9,900 -660 Descending Denver Center
10:33PM 40.0778 -104.6939 180° South 241 277 8,800 -1,080 Descending Denver Center
10:34PM 40.0228 -104.6944 180° South 198 228 7,700 -1,080 Descending Denver Center
10:35PM 39.9672 -104.6953 181° South 184 212 6,700 -900 Descending Denver Center
10:36PM 39.9200 -104.6961 181° South 171 197 5,900 -660 Descending Denver Center
10:37PM 39.8775 -104.6969 181° South 155 178 5,400 -540 Descending Denver Center
10:39PM 39.8617 -104.6732 180° South  Level Estimated
10:46PM 39.8617 -104.6732 180° South  Level Estimated
10:47PM 39.8617 -104.6732 180° South  Level Estimated
10:48PM 39.8617 -104.6732 180° South  Level Estimated